sensor_id;sensor_type;location;lat;lon;timestamp;temperature;humidity
12408;DHT22;6268;48.188;17.134;2022-09-09T00:00:46;19.10;99.90
12408;DHT22;6268;48.188;17.134;2022-09-09T00:03:19;19.10;99.90
12408;DHT22;6268;48.188;17.134;2022-09-09T00:05:59;19.00;99.90
12408;DHT22;6268;48.188;17.134;2022-09-09T00:08:42;18.90;99.90
12408;DHT22;6268;48.188;17.134;2022-09-09T00:11:24;18.80;99.90
12408;DHT22;6268;48.188;17.134;2022-09-09T00:13:59;18.70;99.90
12408;DHT22;6268;48.188;17.134;2022-09-09T00:16:36;18.70;99.90
12408;DHT22;6268;48.188;17.134;2022-09-09T00:19:13;18.60;99.90
12408;DHT22;6268;48.188;17.134;2022-09-09T00:21:55;18.60;99.90
12408;DHT22;6268;48.188;17.134;2022-09-09T00:24:38;18.60;99.90
12408;DHT22;6268;48.188;17.134;2022-09-09T00:27:17;18.50;99.90
12408;DHT22;6268;48.188;17.134;2022-09-09T00:29:58;18.40;99.90
12408;DHT22;6268;48.188;17.134;2022-09-09T00:32:31;18.40;99.90
12408;DHT22;6268;48.188;17.134;2022-09-09T00:35:10;18.40;99.90
12408;DHT22;6268;48.188;17.134;2022-09-09T00:37:47;18.40;99.90
12408;DHT22;6268;48.188;17.134;2022-09-09T00:40:24;18.30;99.90
12408;DHT22;6268;48.188;17.134;2022-09-09T00:43:25;18.30;99.90
12408;DHT22;6268;48.188;17.134;2022-09-09T00:49:27;18.30;99.90
12408;DHT22;6268;48.188;17.134;2022-09-09T00:52:23;18.30;99.90
12408;DHT22;6268;48.188;17.134;2022-09-09T00:55:09;18.30;99.90
12408;DHT22;6268;48.188;17.134;2022-09-09T00:57:48;18.30;99.90
12408;DHT22;6268;48.188;17.134;2022-09-09T01:00:22;18.30;99.90
12408;DHT22;6268;48.188;17.134;2022-09-09T01:03:10;18.30;99.90
12408;DHT22;6268;48.188;17.134;2022-09-09T01:06:00;18.30;99.90
12408;DHT22;6268;48.188;17.134;2022-09-09T01:08:49;18.30;99.90
12408;DHT22;6268;48.188;17.134;2022-09-09T01:11:27;18.30;99.90
12408;DHT22;6268;48.188;17.134;2022-09-09T01:17:00;18.40;99.90
12408;DHT22;6268;48.188;17.134;2022-09-09T01:19:41;18.40;99.90
12408;DHT22;6268;48.188;17.134;2022-09-09T01:22:26;18.30;99.90
12408;DHT22;6268;48.188;17.134;2022-09-09T01:25:18;18.30;99.90
12408;DHT22;6268;48.188;17.134;2022-09-09T01:27:52;18.20;99.90
12408;DHT22;6268;48.188;17.134;2022-09-09T01:30:23;18.20;99.90
12408;DHT22;6268;48.188;17.134;2022-09-09T01:32:55;18.10;99.90
12408;DHT22;6268;48.188;17.134;2022-09-09T01:35:40;18.20;99.90
12408;DHT22;6268;48.188;17.134;2022-09-09T01:38:15;18.20;99.90
12408;DHT22;6268;48.188;17.134;2022-09-09T01:40:44;18.20;99.90
12408;DHT22;6268;48.188;17.134;2022-09-09T01:43:14;18.20;99.90
12408;DHT22;6268;48.188;17.134;2022-09-09T01:45:44;18.20;99.90
12408;DHT22;6268;48.188;17.134;2022-09-09T01:48:16;18.20;99.90
12408;DHT22;6268;48.188;17.134;2022-09-09T01:50:46;18.10;99.90
12408;DHT22;6268;48.188;17.134;2022-09-09T01:53:17;18.10;99.90
12408;DHT22;6268;48.188;17.134;2022-09-09T01:56:02;18.10;99.90
12408;DHT22;6268;48.188;17.134;2022-09-09T01:58:51;18.00;99.90
12408;DHT22;6268;48.188;17.134;2022-09-09T02:01:39;18.00;99.90
12408;DHT22;6268;48.188;17.134;2022-09-09T02:04:27;18.00;99.90
12408;DHT22;6268;48.188;17.134;2022-09-09T02:07:12;18.00;99.90
12408;DHT22;6268;48.188;17.134;2022-09-09T02:09:57;18.00;99.90
12408;DHT22;6268;48.188;17.134;2022-09-09T02:12:30;18.00;99.90
12408;DHT22;6268;48.188;17.134;2022-09-09T02:15:05;17.90;99.90
12408;DHT22;6268;48.188;17.134;2022-09-09T02:17:41;17.90;99.90
12408;DHT22;6268;48.188;17.134;2022-09-09T02:20:12;17.90;99.90
12408;DHT22;6268;48.188;17.134;2022-09-09T02:22:44;17.80;99.90
12408;DHT22;6268;48.188;17.134;2022-09-09T02:25:21;17.80;99.90
12408;DHT22;6268;48.188;17.134;2022-09-09T02:27:52;17.80;99.90
12408;DHT22;6268;48.188;17.134;2022-09-09T02:30:22;17.80;99.90
12408;DHT22;6268;48.188;17.134;2022-09-09T02:32:53;17.80;99.90
12408;DHT22;6268;48.188;17.134;2022-09-09T02:35:25;17.80;99.90
12408;DHT22;6268;48.188;17.134;2022-09-09T02:37:58;17.80;99.90
12408;DHT22;6268;48.188;17.134;2022-09-09T02:40:31;17.70;99.90
12408;DHT22;6268;48.188;17.134;2022-09-09T02:43:00;17.70;99.90
12408;DHT22;6268;48.188;17.134;2022-09-09T02:45:36;17.70;99.90
12408;DHT22;6268;48.188;17.134;2022-09-09T02:48:14;17.70;99.90
12408;DHT22;6268;48.188;17.134;2022-09-09T02:50:54;17.70;99.90
12408;DHT22;6268;48.188;17.134;2022-09-09T02:53:36;17.70;99.90
12408;DHT22;6268;48.188;17.134;2022-09-09T02:56:14;17.70;99.90
12408;DHT22;6268;48.188;17.134;2022-09-09T02:58:44;17.70;99.90
12408;DHT22;6268;48.188;17.134;2022-09-09T03:01:14;17.70;99.90
12408;DHT22;6268;48.188;17.134;2022-09-09T03:03:44;17.70;99.90
12408;DHT22;6268;48.188;17.134;2022-09-09T03:06:13;17.80;99.90
12408;DHT22;6268;48.188;17.134;2022-09-09T03:08:42;17.80;99.90
12408;DHT22;6268;48.188;17.134;2022-09-09T03:11:15;17.80;99.90
12408;DHT22;6268;48.188;17.134;2022-09-09T03:13:44;17.80;99.90
12408;DHT22;6268;48.188;17.134;2022-09-09T03:16:14;17.80;99.90
12408;DHT22;6268;48.188;17.134;2022-09-09T03:18:43;17.80;99.90
12408;DHT22;6268;48.188;17.134;2022-09-09T03:21:12;17.80;99.90
12408;DHT22;6268;48.188;17.134;2022-09-09T03:23:42;17.70;99.90
12408;DHT22;6268;48.188;17.134;2022-09-09T03:26:12;17.70;99.90
12408;DHT22;6268;48.188;17.134;2022-09-09T03:28:42;17.70;99.90
12408;DHT22;6268;48.188;17.134;2022-09-09T03:31:11;17.70;99.90
12408;DHT22;6268;48.188;17.134;2022-09-09T03:33:41;17.70;99.90
12408;DHT22;6268;48.188;17.134;2022-09-09T03:36:10;17.70;99.90
12408;DHT22;6268;48.188;17.134;2022-09-09T03:38:39;17.70;99.90
12408;DHT22;6268;48.188;17.134;2022-09-09T03:41:08;17.70;99.90
12408;DHT22;6268;48.188;17.134;2022-09-09T03:43:36;17.70;99.90
12408;DHT22;6268;48.188;17.134;2022-09-09T03:46:05;17.80;99.90
12408;DHT22;6268;48.188;17.134;2022-09-09T03:48:34;17.80;99.90
12408;DHT22;6268;48.188;17.134;2022-09-09T03:51:04;17.80;99.90
12408;DHT22;6268;48.188;17.134;2022-09-09T03:53:33;17.80;99.90
12408;DHT22;6268;48.188;17.134;2022-09-09T03:56:02;17.90;99.90
12408;DHT22;6268;48.188;17.134;2022-09-09T03:58:34;17.80;99.90
12408;DHT22;6268;48.188;17.134;2022-09-09T04:01:05;17.80;99.90
12408;DHT22;6268;48.188;17.134;2022-09-09T04:03:36;17.80;99.90
12408;DHT22;6268;48.188;17.134;2022-09-09T04:06:08;17.80;99.90
12408;DHT22;6268;48.188;17.134;2022-09-09T04:08:40;17.80;99.90
12408;DHT22;6268;48.188;17.134;2022-09-09T04:11:09;17.80;99.90
12408;DHT22;6268;48.188;17.134;2022-09-09T04:13:38;17.80;99.90
12408;DHT22;6268;48.188;17.134;2022-09-09T04:16:09;17.80;99.90
12408;DHT22;6268;48.188;17.134;2022-09-09T04:18:38;17.80;99.90
12408;DHT22;6268;48.188;17.134;2022-09-09T04:21:09;17.80;99.90
12408;DHT22;6268;48.188;17.134;2022-09-09T04:23:39;17.80;99.90
12408;DHT22;6268;48.188;17.134;2022-09-09T04:26:08;17.80;99.90
12408;DHT22;6268;48.188;17.134;2022-09-09T04:28:37;17.80;99.90
12408;DHT22;6268;48.188;17.134;2022-09-09T04:31:07;17.80;99.90
12408;DHT22;6268;48.188;17.134;2022-09-09T04:33:38;17.90;99.90
12408;DHT22;6268;48.188;17.134;2022-09-09T04:36:08;17.80;99.90
12408;DHT22;6268;48.188;17.134;2022-09-09T04:38:37;17.90;99.90
12408;DHT22;6268;48.188;17.134;2022-09-09T04:41:07;17.90;99.90
12408;DHT22;6268;48.188;17.134;2022-09-09T04:43:38;17.90;99.90
12408;DHT22;6268;48.188;17.134;2022-09-09T04:46:07;17.90;99.90
12408;DHT22;6268;48.188;17.134;2022-09-09T04:48:36;17.90;99.90
12408;DHT22;6268;48.188;17.134;2022-09-09T04:51:12;18.00;99.90
12408;DHT22;6268;48.188;17.134;2022-09-09T04:53:43;18.10;99.90
12408;DHT22;6268;48.188;17.134;2022-09-09T04:56:14;18.10;99.90
12408;DHT22;6268;48.188;17.134;2022-09-09T04:58:45;18.20;99.90
12408;DHT22;6268;48.188;17.134;2022-09-09T05:01:15;18.20;99.90
12408;DHT22;6268;48.188;17.134;2022-09-09T05:03:46;18.20;99.90
12408;DHT22;6268;48.188;17.134;2022-09-09T05:06:18;18.30;99.90
12408;DHT22;6268;48.188;17.134;2022-09-09T05:08:48;18.20;99.90
12408;DHT22;6268;48.188;17.134;2022-09-09T05:11:19;18.30;99.90
12408;DHT22;6268;48.188;17.134;2022-09-09T05:13:50;18.30;99.90
12408;DHT22;6268;48.188;17.134;2022-09-09T05:16:20;18.40;99.90
12408;DHT22;6268;48.188;17.134;2022-09-09T05:18:50;18.50;99.90
12408;DHT22;6268;48.188;17.134;2022-09-09T05:21:22;18.60;99.90
12408;DHT22;6268;48.188;17.134;2022-09-09T05:23:52;18.70;99.90
12408;DHT22;6268;48.188;17.134;2022-09-09T05:26:21;19.00;99.90
12408;DHT22;6268;48.188;17.134;2022-09-09T05:28:51;19.40;99.90
12408;DHT22;6268;48.188;17.134;2022-09-09T05:31:20;19.90;99.90
12408;DHT22;6268;48.188;17.134;2022-09-09T05:33:49;20.20;99.90
12408;DHT22;6268;48.188;17.134;2022-09-09T05:36:20;20.60;99.90
12408;DHT22;6268;48.188;17.134;2022-09-09T05:38:49;20.90;99.90
12408;DHT22;6268;48.188;17.134;2022-09-09T05:41:20;21.00;99.90
12408;DHT22;6268;48.188;17.134;2022-09-09T05:43:50;21.00;99.90
12408;DHT22;6268;48.188;17.134;2022-09-09T05:46:20;21.10;99.90
12408;DHT22;6268;48.188;17.134;2022-09-09T05:48:51;21.40;99.90
12408;DHT22;6268;48.188;17.134;2022-09-09T05:51:23;21.70;99.90
12408;DHT22;6268;48.188;17.134;2022-09-09T05:53:53;22.20;99.90
12408;DHT22;6268;48.188;17.134;2022-09-09T05:56:26;22.80;99.90
12408;DHT22;6268;48.188;17.134;2022-09-09T05:58:56;23.40;99.90
12408;DHT22;6268;48.188;17.134;2022-09-09T06:01:28;23.80;99.90
12408;DHT22;6268;48.188;17.134;2022-09-09T06:03:59;24.20;99.90
12408;DHT22;6268;48.188;17.134;2022-09-09T06:06:31;24.70;99.90
12408;DHT22;6268;48.188;17.134;2022-09-09T06:09:05;25.30;99.90
12408;DHT22;6268;48.188;17.134;2022-09-09T06:11:37;25.60;99.90
12408;DHT22;6268;48.188;17.134;2022-09-09T06:14:08;25.90;99.90
12408;DHT22;6268;48.188;17.134;2022-09-09T06:16:37;26.40;99.90
12408;DHT22;6268;48.188;17.134;2022-09-09T06:19:06;27.00;99.90
12408;DHT22;6268;48.188;17.134;2022-09-09T06:21:36;27.60;99.90
12408;DHT22;6268;48.188;17.134;2022-09-09T06:24:05;27.80;99.90
12408;DHT22;6268;48.188;17.134;2022-09-09T06:26:37;28.20;98.40
12408;DHT22;6268;48.188;17.134;2022-09-09T06:29:08;28.60;95.50
12408;DHT22;6268;48.188;17.134;2022-09-09T06:31:38;28.80;94.60
12408;DHT22;6268;48.188;17.134;2022-09-09T06:34:08;29.30;93.20
12408;DHT22;6268;48.188;17.134;2022-09-09T06:36:39;29.30;90.20
12408;DHT22;6268;48.188;17.134;2022-09-09T06:39:08;29.20;90.40
12408;DHT22;6268;48.188;17.134;2022-09-09T06:41:41;29.50;90.30
12408;DHT22;6268;48.188;17.134;2022-09-09T06:44:10;29.80;88.30
12408;DHT22;6268;48.188;17.134;2022-09-09T06:46:39;30.00;84.30
12408;DHT22;6268;48.188;17.134;2022-09-09T06:49:08;30.40;82.30
12408;DHT22;6268;48.188;17.134;2022-09-09T06:51:38;30.60;79.30
12408;DHT22;6268;48.188;17.134;2022-09-09T06:54:11;30.70;79.70
12408;DHT22;6268;48.188;17.134;2022-09-09T06:56:41;30.60;79.60
12408;DHT22;6268;48.188;17.134;2022-09-09T06:59:12;30.70;77.40
12408;DHT22;6268;48.188;17.134;2022-09-09T07:01:44;30.80;77.50
12408;DHT22;6268;48.188;17.134;2022-09-09T07:04:18;30.50;77.30
12408;DHT22;6268;48.188;17.134;2022-09-09T07:06:48;30.60;78.10
12408;DHT22;6268;48.188;17.134;2022-09-09T07:09:17;31.10;76.70
12408;DHT22;6268;48.188;17.134;2022-09-09T07:11:47;31.60;73.80
12408;DHT22;6268;48.188;17.134;2022-09-09T07:14:17;31.70;74.00
12408;DHT22;6268;48.188;17.134;2022-09-09T07:16:47;32.40;71.10
12408;DHT22;6268;48.188;17.134;2022-09-09T07:19:16;32.80;68.20
12408;DHT22;6268;48.188;17.134;2022-09-09T07:21:44;33.00;67.10
12408;DHT22;6268;48.188;17.134;2022-09-09T07:24:14;32.80;67.10
12408;DHT22;6268;48.188;17.134;2022-09-09T07:26:43;32.40;67.30
12408;DHT22;6268;48.188;17.134;2022-09-09T07:29:12;31.50;69.30
12408;DHT22;6268;48.188;17.134;2022-09-09T07:31:47;31.10;69.50
12408;DHT22;6268;48.188;17.134;2022-09-09T07:34:15;30.80;71.20
12408;DHT22;6268;48.188;17.134;2022-09-09T07:36:45;30.60;71.70
12408;DHT22;6268;48.188;17.134;2022-09-09T07:39:15;30.50;70.90
12408;DHT22;6268;48.188;17.134;2022-09-09T07:41:46;30.40;72.00
12408;DHT22;6268;48.188;17.134;2022-09-09T07:44:18;30.70;70.60
12408;DHT22;6268;48.188;17.134;2022-09-09T07:46:48;30.80;70.20
12408;DHT22;6268;48.188;17.134;2022-09-09T07:49:17;31.30;67.80
12408;DHT22;6268;48.188;17.134;2022-09-09T07:51:54;31.80;66.40
12408;DHT22;6268;48.188;17.134;2022-09-09T07:54:24;32.10;65.00
12408;DHT22;6268;48.188;17.134;2022-09-09T07:56:53;32.40;64.20
12408;DHT22;6268;48.188;17.134;2022-09-09T07:59:21;32.40;62.20
12408;DHT22;6268;48.188;17.134;2022-09-09T08:01:52;32.30;61.50
12408;DHT22;6268;48.188;17.134;2022-09-09T08:04:23;32.70;61.80
12408;DHT22;6268;48.188;17.134;2022-09-09T08:06:55;33.00;59.80
12408;DHT22;6268;48.188;17.134;2022-09-09T08:09:27;33.20;58.60
12408;DHT22;6268;48.188;17.134;2022-09-09T08:11:57;33.10;58.10
12408;DHT22;6268;48.188;17.134;2022-09-09T08:14:27;33.00;59.30
12408;DHT22;6268;48.188;17.134;2022-09-09T08:16:56;33.20;58.30
12408;DHT22;6268;48.188;17.134;2022-09-09T08:19:25;33.40;58.10
12408;DHT22;6268;48.188;17.134;2022-09-09T08:21:56;33.00;58.10
12408;DHT22;6268;48.188;17.134;2022-09-09T08:24:26;33.20;57.40
12408;DHT22;6268;48.188;17.134;2022-09-09T08:26:55;33.20;57.50
12408;DHT22;6268;48.188;17.134;2022-09-09T08:29:24;33.10;57.90
12408;DHT22;6268;48.188;17.134;2022-09-09T08:31:54;33.90;57.10
12408;DHT22;6268;48.188;17.134;2022-09-09T08:34:24;34.40;55.00
12408;DHT22;6268;48.188;17.134;2022-09-09T08:36:55;34.00;54.20
12408;DHT22;6268;48.188;17.134;2022-09-09T08:39:25;33.30;55.00
12408;DHT22;6268;48.188;17.134;2022-09-09T08:42:09;32.40;56.10
12408;DHT22;6268;48.188;17.134;2022-09-09T08:44:57;31.40;58.30
12408;DHT22;6268;48.188;17.134;2022-09-09T08:47:41;30.50;59.60
12408;DHT22;6268;48.188;17.134;2022-09-09T08:50:22;30.00;60.70
12408;DHT22;6268;48.188;17.134;2022-09-09T08:53:00;29.70;61.60
12408;DHT22;6268;48.188;17.134;2022-09-09T08:55:37;29.60;62.60
12408;DHT22;6268;48.188;17.134;2022-09-09T08:58:13;29.30;62.80
12408;DHT22;6268;48.188;17.134;2022-09-09T09:01:05;29.20;63.80
12408;DHT22;6268;48.188;17.134;2022-09-09T09:03:54;29.40;63.80
12408;DHT22;6268;48.188;17.134;2022-09-09T09:06:38;30.50;63.80
12408;DHT22;6268;48.188;17.134;2022-09-09T09:09:22;31.60;59.70
12408;DHT22;6268;48.188;17.134;2022-09-09T09:12:02;32.00;57.90
12408;DHT22;6268;48.188;17.134;2022-09-09T09:14:43;32.80;57.50
12408;DHT22;6268;48.188;17.134;2022-09-09T09:17:16;32.80;56.30
12408;DHT22;6268;48.188;17.134;2022-09-09T09:19:48;33.10;55.70
12408;DHT22;6268;48.188;17.134;2022-09-09T09:22:19;33.00;55.10
12408;DHT22;6268;48.188;17.134;2022-09-09T09:24:52;32.90;55.90
12408;DHT22;6268;48.188;17.134;2022-09-09T09:27:31;33.20;56.10
12408;DHT22;6268;48.188;17.134;2022-09-09T09:30:05;33.70;55.10
12408;DHT22;6268;48.188;17.134;2022-09-09T09:32:59;34.00;54.50
12408;DHT22;6268;48.188;17.134;2022-09-09T09:35:30;33.80;54.00
12408;DHT22;6268;48.188;17.134;2022-09-09T09:38:14;33.20;53.90
12408;DHT22;6268;48.188;17.134;2022-09-09T09:41:05;32.50;54.40
12408;DHT22;6268;48.188;17.134;2022-09-09T09:43:37;32.10;56.10
12408;DHT22;6268;48.188;17.134;2022-09-09T09:46:20;32.30;55.60
12408;DHT22;6268;48.188;17.134;2022-09-09T09:48:59;32.90;54.40
12408;DHT22;6268;48.188;17.134;2022-09-09T09:51:30;33.30;53.00
12408;DHT22;6268;48.188;17.134;2022-09-09T09:54:15;33.00;52.30
12408;DHT22;6268;48.188;17.134;2022-09-09T09:56:47;32.50;53.70
12408;DHT22;6268;48.188;17.134;2022-09-09T09:59:33;32.20;53.20
12408;DHT22;6268;48.188;17.134;2022-09-09T10:02:18;32.30;52.40
12408;DHT22;6268;48.188;17.134;2022-09-09T10:05:01;32.60;51.00
12408;DHT22;6268;48.188;17.134;2022-09-09T10:07:31;32.60;51.40
12408;DHT22;6268;48.188;17.134;2022-09-09T10:10:01;32.50;49.50
12408;DHT22;6268;48.188;17.134;2022-09-09T10:12:39;32.50;49.10
12408;DHT22;6268;48.188;17.134;2022-09-09T10:15:32;32.60;49.60
12408;DHT22;6268;48.188;17.134;2022-09-09T10:18:21;32.50;49.20
12408;DHT22;6268;48.188;17.134;2022-09-09T10:21:06;32.20;49.10
12408;DHT22;6268;48.188;17.134;2022-09-09T10:23:55;31.80;50.60
12408;DHT22;6268;48.188;17.134;2022-09-09T10:26:40;31.60;52.40
12408;DHT22;6268;48.188;17.134;2022-09-09T10:29:35;31.50;51.40
12408;DHT22;6268;48.188;17.134;2022-09-09T10:32:36;31.30;51.60
12408;DHT22;6268;48.188;17.134;2022-09-09T10:35:12;31.50;52.20
12408;DHT22;6268;48.188;17.134;2022-09-09T10:38:03;31.60;52.10
12408;DHT22;6268;48.188;17.134;2022-09-09T10:40:48;31.70;51.90
12408;DHT22;6268;48.188;17.134;2022-09-09T10:43:44;31.60;51.70
12408;DHT22;6268;48.188;17.134;2022-09-09T10:46:34;31.80;50.20
12408;DHT22;6268;48.188;17.134;2022-09-09T10:49:19;31.60;48.70
12408;DHT22;6268;48.188;17.134;2022-09-09T10:52:03;31.30;48.90
12408;DHT22;6268;48.188;17.134;2022-09-09T10:54:49;31.30;50.50
12408;DHT22;6268;48.188;17.134;2022-09-09T10:57:29;31.40;50.30
12408;DHT22;6268;48.188;17.134;2022-09-09T11:00:06;31.50;51.00
12408;DHT22;6268;48.188;17.134;2022-09-09T11:02:42;31.80;50.20
12408;DHT22;6268;48.188;17.134;2022-09-09T11:05:17;32.20;51.30
12408;DHT22;6268;48.188;17.134;2022-09-09T11:07:53;32.10;51.60
12408;DHT22;6268;48.188;17.134;2022-09-09T11:10:28;31.80;51.60
12408;DHT22;6268;48.188;17.134;2022-09-09T11:13:08;31.40;51.90
12408;DHT22;6268;48.188;17.134;2022-09-09T11:15:42;31.20;52.30
12408;DHT22;6268;48.188;17.134;2022-09-09T11:18:17;31.00;51.80
12408;DHT22;6268;48.188;17.134;2022-09-09T11:20:52;30.80;52.80
12408;DHT22;6268;48.188;17.134;2022-09-09T11:23:29;30.70;52.80
12408;DHT22;6268;48.188;17.134;2022-09-09T11:26:12;30.70;52.50
12408;DHT22;6268;48.188;17.134;2022-09-09T11:28:55;30.80;52.20
12408;DHT22;6268;48.188;17.134;2022-09-09T11:31:44;31.00;52.00
12408;DHT22;6268;48.188;17.134;2022-09-09T11:34:27;31.30;52.30
12408;DHT22;6268;48.188;17.134;2022-09-09T11:37:23;31.40;51.80
12408;DHT22;6268;48.188;17.134;2022-09-09T11:40:15;31.40;50.90
12408;DHT22;6268;48.188;17.134;2022-09-09T11:42:47;31.50;49.30
12408;DHT22;6268;48.188;17.134;2022-09-09T11:45:22;31.50;48.90
12408;DHT22;6268;48.188;17.134;2022-09-09T11:47:55;31.50;49.20
12408;DHT22;6268;48.188;17.134;2022-09-09T11:50:31;31.30;49.30
12408;DHT22;6268;48.188;17.134;2022-09-09T11:53:33;31.20;48.50
12408;DHT22;6268;48.188;17.134;2022-09-09T11:56:10;31.00;48.50
12408;DHT22;6268;48.188;17.134;2022-09-09T11:58:43;30.90;48.20
12408;DHT22;6268;48.188;17.134;2022-09-09T12:01:36;31.00;48.40
12408;DHT22;6268;48.188;17.134;2022-09-09T12:04:28;31.20;48.30
12408;DHT22;6268;48.188;17.134;2022-09-09T12:07:03;31.40;48.10
12408;DHT22;6268;48.188;17.134;2022-09-09T12:09:43;31.30;48.50
12408;DHT22;6268;48.188;17.134;2022-09-09T12:12:26;31.20;49.10
12408;DHT22;6268;48.188;17.134;2022-09-09T12:17:50;31.20;48.80
12408;DHT22;6268;48.188;17.134;2022-09-09T12:20:22;31.20;48.50
12408;DHT22;6268;48.188;17.134;2022-09-09T12:23:27;31.10;48.30
12408;DHT22;6268;48.188;17.134;2022-09-09T12:26:21;31.20;48.50
12408;DHT22;6268;48.188;17.134;2022-09-09T12:29:06;31.20;47.80
12408;DHT22;6268;48.188;17.134;2022-09-09T12:31:50;31.10;46.30
12408;DHT22;6268;48.188;17.134;2022-09-09T12:34:34;31.00;46.60
12408;DHT22;6268;48.188;17.134;2022-09-09T12:37:16;30.70;47.20
12408;DHT22;6268;48.188;17.134;2022-09-09T12:39:55;30.50;47.80
12408;DHT22;6268;48.188;17.134;2022-09-09T12:42:27;30.20;47.80
12408;DHT22;6268;48.188;17.134;2022-09-09T12:44:57;30.20;47.80
12408;DHT22;6268;48.188;17.134;2022-09-09T12:47:33;30.20;47.30
12408;DHT22;6268;48.188;17.134;2022-09-09T12:50:16;30.20;47.90
12408;DHT22;6268;48.188;17.134;2022-09-09T12:52:47;30.30;47.80
12408;DHT22;6268;48.188;17.134;2022-09-09T12:55:20;30.40;47.70
12408;DHT22;6268;48.188;17.134;2022-09-09T12:57:53;30.50;47.50
12408;DHT22;6268;48.188;17.134;2022-09-09T13:00:24;30.60;46.90
12408;DHT22;6268;48.188;17.134;2022-09-09T13:02:55;30.70;47.00
12408;DHT22;6268;48.188;17.134;2022-09-09T13:05:27;30.80;46.40
12408;DHT22;6268;48.188;17.134;2022-09-09T13:08:02;30.60;47.00
12408;DHT22;6268;48.188;17.134;2022-09-09T13:10:34;30.60;47.80
12408;DHT22;6268;48.188;17.134;2022-09-09T13:13:29;30.60;48.40
12408;DHT22;6268;48.188;17.134;2022-09-09T13:16:05;30.50;47.80
12408;DHT22;6268;48.188;17.134;2022-09-09T13:18:40;30.50;47.40
12408;DHT22;6268;48.188;17.134;2022-09-09T13:21:09;30.50;47.50
12408;DHT22;6268;48.188;17.134;2022-09-09T13:23:38;30.60;47.00
12408;DHT22;6268;48.188;17.134;2022-09-09T13:26:20;30.60;47.30
12408;DHT22;6268;48.188;17.134;2022-09-09T13:28:53;30.50;47.20
12408;DHT22;6268;48.188;17.134;2022-09-09T13:31:24;30.50;46.50
12408;DHT22;6268;48.188;17.134;2022-09-09T13:33:56;30.50;46.90
12408;DHT22;6268;48.188;17.134;2022-09-09T13:36:30;30.40;46.30
12408;DHT22;6268;48.188;17.134;2022-09-09T13:39:01;30.40;46.50
12408;DHT22;6268;48.188;17.134;2022-09-09T13:41:33;30.40;46.60
12408;DHT22;6268;48.188;17.134;2022-09-09T13:44:05;30.30;46.30
12408;DHT22;6268;48.188;17.134;2022-09-09T13:46:36;30.10;47.10
12408;DHT22;6268;48.188;17.134;2022-09-09T13:49:19;30.10;47.80
12408;DHT22;6268;48.188;17.134;2022-09-09T13:51:50;30.00;48.10
12408;DHT22;6268;48.188;17.134;2022-09-09T13:54:31;30.10;47.50
12408;DHT22;6268;48.188;17.134;2022-09-09T13:56:59;30.10;47.80
12408;DHT22;6268;48.188;17.134;2022-09-09T13:59:30;30.00;48.50
12408;DHT22;6268;48.188;17.134;2022-09-09T14:02:20;29.90;48.60
12408;DHT22;6268;48.188;17.134;2022-09-09T14:04:50;29.80;49.30
12408;DHT22;6268;48.188;17.134;2022-09-09T14:07:22;29.80;49.50
12408;DHT22;6268;48.188;17.134;2022-09-09T14:09:51;29.70;49.90
12408;DHT22;6268;48.188;17.134;2022-09-09T14:12:20;29.60;50.50
12408;DHT22;6268;48.188;17.134;2022-09-09T14:14:50;29.50;50.10
12408;DHT22;6268;48.188;17.134;2022-09-09T14:17:19;29.50;50.50
12408;DHT22;6268;48.188;17.134;2022-09-09T14:19:49;29.40;50.80
12408;DHT22;6268;48.188;17.134;2022-09-09T14:22:18;29.30;51.10
12408;DHT22;6268;48.188;17.134;2022-09-09T14:24:47;29.30;51.30
12408;DHT22;6268;48.188;17.134;2022-09-09T14:27:16;29.30;51.40
12408;DHT22;6268;48.188;17.134;2022-09-09T14:29:45;29.20;50.50
12408;DHT22;6268;48.188;17.134;2022-09-09T14:32:15;29.30;50.30
12408;DHT22;6268;48.188;17.134;2022-09-09T14:34:44;29.10;50.30
12408;DHT22;6268;48.188;17.134;2022-09-09T14:37:13;29.10;51.40
12408;DHT22;6268;48.188;17.134;2022-09-09T14:39:41;29.20;51.90
12408;DHT22;6268;48.188;17.134;2022-09-09T14:42:11;29.10;52.70
12408;DHT22;6268;48.188;17.134;2022-09-09T14:44:40;29.10;53.00
12408;DHT22;6268;48.188;17.134;2022-09-09T14:47:09;29.10;53.10
12408;DHT22;6268;48.188;17.134;2022-09-09T14:49:38;28.90;54.00
12408;DHT22;6268;48.188;17.134;2022-09-09T14:52:12;28.80;54.90
12408;DHT22;6268;48.188;17.134;2022-09-09T14:54:41;28.70;55.30
12408;DHT22;6268;48.188;17.134;2022-09-09T14:57:10;28.70;57.10
12408;DHT22;6268;48.188;17.134;2022-09-09T14:59:38;28.60;57.30
12408;DHT22;6268;48.188;17.134;2022-09-09T15:02:08;28.50;57.40
12408;DHT22;6268;48.188;17.134;2022-09-09T15:04:39;28.40;57.80
12408;DHT22;6268;48.188;17.134;2022-09-09T15:07:07;28.30;58.30
12408;DHT22;6268;48.188;17.134;2022-09-09T15:09:37;28.20;58.60
12408;DHT22;6268;48.188;17.134;2022-09-09T15:12:06;28.20;58.70
12408;DHT22;6268;48.188;17.134;2022-09-09T15:14:35;28.20;58.30
12408;DHT22;6268;48.188;17.134;2022-09-09T15:17:05;28.20;58.40
12408;DHT22;6268;48.188;17.134;2022-09-09T15:19:33;28.10;59.10
12408;DHT22;6268;48.188;17.134;2022-09-09T15:22:05;28.10;59.20
12408;DHT22;6268;48.188;17.134;2022-09-09T15:24:34;28.10;59.90
12408;DHT22;6268;48.188;17.134;2022-09-09T15:27:04;28.10;59.60
12408;DHT22;6268;48.188;17.134;2022-09-09T15:29:32;28.00;59.80
12408;DHT22;6268;48.188;17.134;2022-09-09T15:32:01;28.00;60.10
12408;DHT22;6268;48.188;17.134;2022-09-09T15:34:30;27.90;61.10
12408;DHT22;6268;48.188;17.134;2022-09-09T15:36:59;27.90;61.80
12408;DHT22;6268;48.188;17.134;2022-09-09T15:39:29;27.90;62.20
12408;DHT22;6268;48.188;17.134;2022-09-09T15:42:04;27.90;62.50
12408;DHT22;6268;48.188;17.134;2022-09-09T15:44:41;27.70;62.60
12408;DHT22;6268;48.188;17.134;2022-09-09T15:47:11;27.70;63.10
12408;DHT22;6268;48.188;17.134;2022-09-09T15:49:42;27.60;64.00
12408;DHT22;6268;48.188;17.134;2022-09-09T15:52:11;27.50;64.50
12408;DHT22;6268;48.188;17.134;2022-09-09T15:54:41;27.40;64.60
12408;DHT22;6268;48.188;17.134;2022-09-09T15:57:12;27.30;64.50
12408;DHT22;6268;48.188;17.134;2022-09-09T15:59:41;27.10;65.10
12408;DHT22;6268;48.188;17.134;2022-09-09T16:02:12;26.90;65.60
12408;DHT22;6268;48.188;17.134;2022-09-09T16:04:40;26.90;66.60
12408;DHT22;6268;48.188;17.134;2022-09-09T16:07:09;26.80;67.40
12408;DHT22;6268;48.188;17.134;2022-09-09T16:09:38;26.80;67.20
12408;DHT22;6268;48.188;17.134;2022-09-09T16:12:08;26.90;67.40
12408;DHT22;6268;48.188;17.134;2022-09-09T16:14:39;26.80;68.50
12408;DHT22;6268;48.188;17.134;2022-09-09T16:17:08;26.80;68.80
12408;DHT22;6268;48.188;17.134;2022-09-09T16:19:38;26.70;69.10
12408;DHT22;6268;48.188;17.134;2022-09-09T16:22:06;26.70;69.30
12408;DHT22;6268;48.188;17.134;2022-09-09T16:24:35;26.60;69.70